Time;durP1;ratioP1;P1;durP2;ratioP2;P2;SDS_P1;SDS_P2;PMS_P1;PMS_P2;Temp;Humidity;BMP_temperature;BMP_pressure;BME280_temperature;BME280_humidity;BME280_pressure;Samples;Min_cycle;Max_cycle;Signal;HPM_P1;HPM_P2
2023/07/30 00:00:16;;;;;;;2.23;1.30;;;19.30;99.90;;;;;;5012965;28;21209;-77
2023/07/30 00:02:41;;;;;;;2.47;1.50;;;19.20;99.90;;;;;;5011279;28;20183;-77
2023/07/30 00:05:07;;;;;;;1.90;1.20;;;19.20;99.90;;;;;;5028412;28;20186;-77
2023/07/30 00:07:33;;;;;;;1.80;1.10;;;19.20;99.90;;;;;;5028252;28;20186;-77
2023/07/30 00:09:58;;;;;;;2.30;1.27;;;19.20;99.90;;;;;;5012386;28;20213;-78
2023/07/30 00:12:27;;;;;;;3.50;1.17;;;19.20;99.90;;;;;;5028120;28;20537;-78
2023/07/30 00:14:53;;;;;;;2.60;1.17;;;19.20;99.90;;;;;;5027698;28;20588;-78
2023/07/30 00:17:19;;;;;;;4.07;1.20;;;19.20;99.90;;;;;;5028088;28;20566;-78
2023/07/30 00:19:44;;;;;;;2.03;1.20;;;19.20;99.90;;;;;;5010707;28;20178;-77
2023/07/30 00:22:13;;;;;;;1.90;1.20;;;19.10;99.90;;;;;;5012596;28;20174;-77
2023/07/30 00:24:38;;;;;;;1.73;1.10;;;19.10;99.90;;;;;;5027396;28;20284;-77
2023/07/30 00:27:05;;;;;;;2.50;1.43;;;19.10;99.90;;;;;;5012496;28;20625;-77
2023/07/30 00:29:30;;;;;;;2.40;1.30;;;19.10;99.90;;;;;;5010639;28;20865;-77
2023/07/30 00:32:10;;;;;;;2.30;1.30;;;19.10;99.90;;;;;;5014475;28;20656;-78
2023/07/30 00:34:48;;;;;;;2.20;1.30;;;19.10;99.90;;;;;;5027358;28;20190;-77
2023/07/30 00:37:14;;;;;;;1.93;1.40;;;19.00;99.90;;;;;;5027668;28;21132;-77
2023/07/30 00:39:39;;;;;;;3.07;1.30;;;19.00;99.90;;;;;;5010406;28;20167;-77
2023/07/30 00:42:05;;;;;;;2.23;1.53;;;19.00;99.90;;;;;;5010900;28;20656;-77
2023/07/30 00:44:31;;;;;;;3.10;1.50;;;19.00;99.90;;;;;;5025569;28;20249;-78
2023/07/30 00:46:57;;;;;;;1.70;1.10;;;19.00;99.90;;;;;;5011331;28;20616;-78
2023/07/30 00:49:23;;;;;;;2.80;1.40;;;19.00;99.90;;;;;;5037558;28;20312;-78
2023/07/30 00:51:48;;;;;;;2.03;1.37;;;19.00;99.90;;;;;;5021675;28;20576;-78
2023/07/30 00:54:14;;;;;;;5.73;1.53;;;19.00;99.90;;;;;;5046833;28;20197;-78
2023/07/30 00:56:49;;;;;;;2.33;1.43;;;19.00;99.90;;;;;;5047051;28;20174;-78
2023/07/30 00:59:14;;;;;;;2.53;1.80;;;19.00;99.90;;;;;;5031599;28;20180;-78
2023/07/30 01:01:42;;;;;;;4.80;1.77;;;19.00;99.90;;;;;;5030941;28;21091;-78
2023/07/30 01:04:09;;;;;;;2.67;1.50;;;18.90;99.90;;;;;;5030446;28;20189;-78
2023/07/30 01:06:34;;;;;;;2.80;1.33;;;19.00;99.90;;;;;;5030314;28;21129;-78
2023/07/30 01:09:01;;;;;;;4.77;1.40;;;19.00;99.90;;;;;;5048282;28;20572;-78
2023/07/30 01:11:27;;;;;;;1.70;1.13;;;19.00;99.90;;;;;;5029771;28;20785;-78
2023/07/30 01:13:54;;;;;;;2.57;1.30;;;19.00;99.90;;;;;;5046740;28;20655;-78
2023/07/30 01:16:20;;;;;;;1.70;1.10;;;19.00;99.90;;;;;;5034944;28;20617;-78
2023/07/30 01:18:46;;;;;;;2.20;1.47;;;19.10;99.90;;;;;;5061592;28;21240;-78
2023/07/30 01:21:12;;;;;;;3.40;1.50;;;19.10;99.90;;;;;;5049884;28;20645;-78
2023/07/30 01:23:38;;;;;;;3.13;1.50;;;19.20;99.90;;;;;;5066380;28;20635;-78
2023/07/30 01:26:30;;;;;;;2.20;1.00;;;19.20;99.90;;;;;;5050255;28;20168;-78
2023/07/30 01:29:00;;;;;;;1.70;1.00;;;19.20;99.90;;;;;;4997693;28;20275;-78
2023/07/30 01:31:30;;;;;;;1.70;1.10;;;19.40;99.90;;;;;;5049904;28;20598;-78
2023/07/30 01:33:58;;;;;;;3.60;1.37;;;19.40;99.90;;;;;;5049681;28;20635;-78
2023/07/30 01:36:24;;;;;;;4.30;1.10;;;19.50;99.90;;;;;;5050024;28;20613;-78
2023/07/30 01:38:50;;;;;;;3.23;1.50;;;19.50;99.90;;;;;;5065820;28;20584;-78
2023/07/30 01:41:16;;;;;;;4.83;1.40;;;19.50;99.90;;;;;;5065951;28;20676;-78
2023/07/30 01:43:42;;;;;;;3.10;1.30;;;19.60;99.90;;;;;;5050044;28;20659;-77
2023/07/30 01:46:08;;;;;;;2.00;1.20;;;19.60;99.90;;;;;;5068847;28;20586;-78
2023/07/30 01:48:33;;;;;;;3.30;1.20;;;19.70;99.90;;;;;;5032306;28;20177;-78
2023/07/30 01:50:59;;;;;;;4.07;1.00;;;19.70;99.90;;;;;;5049568;28;20228;-78
2023/07/30 01:53:26;;;;;;;2.77;1.00;;;19.70;99.90;;;;;;5065685;28;20232;-78
2023/07/30 01:55:52;;;;;;;3.17;1.20;;;19.80;99.90;;;;;;5066500;28;20630;-78
2023/07/30 01:58:17;;;;;;;4.40;1.47;;;19.80;99.90;;;;;;5065867;28;20169;-78
2023/07/30 02:00:45;;;;;;;3.73;1.20;;;19.80;99.90;;;;;;5049132;28;20173;-78
2023/07/30 02:03:10;;;;;;;3.03;1.50;;;19.90;99.90;;;;;;5050498;28;20185;-78
2023/07/30 02:05:36;;;;;;;3.10;1.03;;;19.90;99.90;;;;;;5032753;28;20958;-78
2023/07/30 02:08:02;;;;;;;4.20;1.30;;;19.90;99.90;;;;;;5048871;28;20172;-78
2023/07/30 02:10:30;;;;;;;3.33;1.10;;;19.90;99.90;;;;;;5048844;28;20213;-78
2023/07/30 02:12:56;;;;;;;3.93;1.27;;;20.00;99.90;;;;;;5048823;28;20972;-78
2023/07/30 02:15:21;;;;;;;3.50;1.10;;;20.00;99.90;;;;;;5048873;28;20627;-78
2023/07/30 02:17:47;;;;;;;3.30;1.63;;;20.00;99.90;;;;;;5032707;28;20173;-78
2023/07/30 02:20:13;;;;;;;4.17;1.37;;;20.00;99.90;;;;;;5065190;28;20185;-78
2023/07/30 02:22:38;;;;;;;2.00;0.93;;;20.00;99.90;;;;;;5068956;28;20720;-78
2023/07/30 02:25:04;;;;;;;3.10;1.40;;;20.00;99.90;;;;;;5065614;28;20204;-78
2023/07/30 02:27:30;;;;;;;3.30;1.10;;;20.00;99.90;;;;;;5065839;28;20279;-78
2023/07/30 02:29:56;;;;;;;2.13;1.17;;;20.00;99.90;;;;;;5065082;28;20738;-77
2023/07/30 02:32:22;;;;;;;3.30;1.10;;;20.00;99.90;;;;;;5048310;28;20173;-78
2023/07/30 02:34:47;;;;;;;2.63;1.27;;;20.00;99.90;;;;;;5048956;28;20690;-77
2023/07/30 02:37:13;;;;;;;2.63;1.17;;;20.00;99.90;;;;;;5065480;28;20173;-78
2023/07/30 02:39:39;;;;;;;2.00;1.10;;;20.00;99.90;;;;;;5050037;28;20177;-77
2023/07/30 02:42:05;;;;;;;3.40;1.20;;;20.00;99.90;;;;;;5065078;28;20180;-77
2023/07/30 02:44:30;;;;;;;2.33;1.00;;;20.00;99.90;;;;;;5065637;28;20699;-77
2023/07/30 02:46:56;;;;;;;3.07;1.53;;;20.00;99.90;;;;;;5065227;28;20583;-78
2023/07/30 02:49:22;;;;;;;2.80;1.30;;;20.00;99.90;;;;;;5049698;28;20809;-77
2023/07/30 02:51:48;;;;;;;3.47;1.30;;;20.00;99.90;;;;;;5050985;28;20179;-77
2023/07/30 02:54:20;;;;;;;4.00;1.50;;;20.00;99.90;;;;;;5036329;28;20263;-77
2023/07/30 02:56:46;;;;;;;1.70;1.00;;;20.00;99.90;;;;;;5052728;28;20669;-77
2023/07/30 02:59:12;;;;;;;4.43;1.50;;;19.90;99.90;;;;;;5056062;28;20599;-77
2023/07/30 03:01:37;;;;;;;3.00;1.10;;;19.90;99.90;;;;;;5052370;28;20177;-78
2023/07/30 03:04:04;;;;;;;3.00;1.30;;;19.90;99.90;;;;;;5052553;28;20193;-78
2023/07/30 03:06:30;;;;;;;2.10;1.00;;;19.90;99.90;;;;;;5054276;28;20180;-78
2023/07/30 03:08:56;;;;;;;2.77;1.47;;;19.90;99.90;;;;;;5068467;28;20951;-77
2023/07/30 03:11:22;;;;;;;5.53;1.50;;;19.90;99.90;;;;;;5052273;28;20738;-78
2023/07/30 03:13:48;;;;;;;3.90;1.53;;;19.90;99.90;;;;;;5069062;28;20192;-78
2023/07/30 03:16:14;;;;;;;2.90;1.30;;;19.90;99.90;;;;;;5052594;28;21481;-78
2023/07/30 03:18:40;;;;;;;5.27;1.23;;;19.90;99.90;;;;;;5051635;28;20177;-78
2023/07/30 03:21:06;;;;;;;3.20;1.43;;;19.90;99.90;;;;;;5051799;28;20190;-77
2023/07/30 03:23:31;;;;;;;2.77;1.40;;;19.90;99.90;;;;;;5044264;28;20217;-77
2023/07/30 03:25:59;;;;;;;4.67;2.10;;;19.90;99.90;;;;;;5015035;28;20635;-78
2023/07/30 03:28:25;;;;;;;4.57;1.13;;;19.90;99.90;;;;;;5011680;28;20177;-78
2023/07/30 03:30:51;;;;;;;3.77;1.17;;;19.90;99.90;;;;;;5028934;28;20672;-77
2023/07/30 03:33:16;;;;;;;4.00;1.50;;;19.90;99.90;;;;;;4995733;28;20579;-78
2023/07/30 03:35:42;;;;;;;3.27;1.20;;;19.90;99.90;;;;;;5032952;28;20261;-78
2023/07/30 03:38:08;;;;;;;2.70;1.30;;;19.90;99.90;;;;;;5012045;28;20197;-77
2023/07/30 03:40:34;;;;;;;3.13;1.80;;;19.90;99.90;;;;;;5028576;28;20175;-77
2023/07/30 03:42:59;;;;;;;5.03;1.53;;;19.90;99.90;;;;;;5028490;28;21003;-78
2023/07/30 03:45:25;;;;;;;5.53;1.60;;;19.90;99.90;;;;;;5013303;28;20190;-78
2023/07/30 03:47:51;;;;;;;3.33;1.63;;;19.90;99.90;;;;;;5012234;28;20185;-77
2023/07/30 03:50:17;;;;;;;5.73;1.33;;;19.90;99.90;;;;;;5012664;28;20245;-78
2023/07/30 03:52:43;;;;;;;3.67;1.40;;;19.90;99.90;;;;;;4979292;28;20190;-77
2023/07/30 03:55:09;;;;;;;3.97;1.53;;;19.90;99.90;;;;;;5011809;28;20908;-77
2023/07/30 03:57:34;;;;;;;8.13;1.80;;;19.90;99.90;;;;;;5011896;28;20171;-78
2023/07/30 04:00:03;;;;;;;5.20;1.60;;;19.80;99.90;;;;;;5011124;28;20592;-78
2023/07/30 04:02:29;;;;;;;4.70;1.40;;;19.80;99.90;;;;;;5012022;28;20619;-78
2023/07/30 04:04:55;;;;;;;4.47;1.40;;;19.80;99.90;;;;;;5027657;28;20670;-78
2023/07/30 04:07:21;;;;;;;3.90;1.40;;;19.80;99.90;;;;;;5011697;28;20257;-78
2023/07/30 04:09:47;;;;;;;4.00;2.03;;;19.80;99.90;;;;;;5011579;28;20640;-78
2023/07/30 04:12:12;;;;;;;6.03;1.40;;;19.80;99.90;;;;;;5014836;28;20593;-78
2023/07/30 04:14:38;;;;;;;4.70;1.30;;;19.70;99.90;;;;;;5013146;28;20198;-78
2023/07/30 04:17:04;;;;;;;5.27;1.33;;;19.70;99.90;;;;;;5012833;28;20167;-78
2023/07/30 04:19:29;;;;;;;2.60;1.57;;;19.70;99.90;;;;;;5027792;28;20587;-77
2023/07/30 04:21:55;;;;;;;3.10;1.40;;;19.70;99.90;;;;;;5027212;28;20209;-78
2023/07/30 04:24:21;;;;;;;3.93;1.57;;;19.70;99.90;;;;;;5011584;28;20217;-78
2023/07/30 04:26:47;;;;;;;2.63;1.30;;;19.70;99.90;;;;;;5011121;28;20591;-78
2023/07/30 04:29:13;;;;;;;4.20;1.73;;;19.70;99.90;;;;;;5011331;28;20182;-78
2023/07/30 04:31:39;;;;;;;6.83;1.50;;;19.80;99.90;;;;;;5011225;28;20187;-78
2023/07/30 04:34:05;;;;;;;4.37;1.20;;;19.80;99.90;;;;;;5011577;28;20956;-79
2023/07/30 04:36:31;;;;;;;3.33;1.50;;;19.80;99.90;;;;;;5027881;28;20202;-78
2023/07/30 04:38:57;;;;;;;5.43;1.57;;;19.80;99.90;;;;;;5011230;28;20183;-79
2023/07/30 04:41:29;;;;;;;3.30;1.10;;;19.80;99.90;;;;;;5027977;28;20592;-79
2023/07/30 04:43:57;;;;;;;2.00;1.03;;;19.90;99.90;;;;;;5051667;23;20683;-79
2023/07/30 04:46:23;;;;;;;3.20;1.47;;;19.90;99.90;;;;;;5014543;28;20587;-80
2023/07/30 04:48:48;;;;;;;4.83;1.30;;;19.90;99.90;;;;;;4996150;28;20585;-79
2023/07/30 04:51:17;;;;;;;2.83;1.50;;;19.90;99.90;;;;;;4962431;28;20301;-79
2023/07/30 04:53:43;;;;;;;6.27;1.50;;;19.90;99.90;;;;;;5001347;28;20705;-79
2023/07/30 04:56:09;;;;;;;3.90;1.37;;;19.90;99.90;;;;;;4974939;28;20175;-79
2023/07/30 04:58:34;;;;;;;3.03;1.20;;;19.90;99.90;;;;;;4974250;28;20270;-79
2023/07/30 05:01:01;;;;;;;3.37;1.13;;;19.80;99.90;;;;;;4974797;28;20270;-79
2023/07/30 05:03:26;;;;;;;2.50;1.03;;;19.80;99.90;;;;;;4974460;28;20704;-80
2023/07/30 05:05:53;;;;;;;4.40;1.03;;;19.80;99.90;;;;;;4975335;28;20590;-80
2023/07/30 05:08:18;;;;;;;4.23;0.90;;;19.80;99.90;;;;;;4991723;28;20669;-80
2023/07/30 05:10:44;;;;;;;2.43;1.10;;;19.90;99.90;;;;;;4992476;28;20661;-79
2023/07/30 05:13:10;;;;;;;2.57;1.00;;;19.90;99.90;;;;;;4974538;28;20199;-79
2023/07/30 05:15:35;;;;;;;3.30;0.97;;;19.90;99.90;;;;;;4974733;28;20175;-79
2023/07/30 05:18:01;;;;;;;7.70;1.17;;;19.90;99.90;;;;;;4974322;28;20203;-79
2023/07/30 05:20:27;;;;;;;3.50;1.10;;;20.00;99.90;;;;;;4974807;28;20179;-79
2023/07/30 05:22:53;;;;;;;4.17;1.37;;;20.00;99.90;;;;;;4991982;28;20197;-79
2023/07/30 05:25:18;;;;;;;5.00;1.20;;;20.00;99.90;;;;;;4991861;28;20232;-79
2023/07/30 05:27:44;;;;;;;3.93;0.97;;;20.00;99.90;;;;;;4992200;28;20179;-79
2023/07/30 05:30:10;;;;;;;2.77;1.00;;;20.10;99.90;;;;;;4973926;28;20290;-79
2023/07/30 05:32:36;;;;;;;4.70;1.20;;;20.10;99.90;;;;;;4991797;28;20175;-81
2023/07/30 05:35:05;;;;;;;7.40;1.93;;;20.10;99.90;;;;;;4974051;28;20677;-79
2023/07/30 05:37:30;;;;;;;4.83;1.00;;;20.10;99.90;;;;;;4992034;28;20578;-79
2023/07/30 05:39:56;;;;;;;5.37;0.90;;;20.20;99.90;;;;;;4991118;28;20581;-79
2023/07/30 05:42:21;;;;;;;4.67;1.20;;;20.20;99.90;;;;;;4973925;28;20643;-79
2023/07/30 05:44:47;;;;;;;4.20;1.23;;;20.20;99.90;;;;;;4974231;28;20211;-79
2023/07/30 05:47:13;;;;;;;4.13;1.10;;;20.20;99.90;;;;;;4991721;28;20171;-79
2023/07/30 05:49:39;;;;;;;5.40;0.90;;;20.20;99.90;;;;;;4973851;28;20274;-79
2023/07/30 05:52:05;;;;;;;2.30;1.03;;;20.20;99.90;;;;;;4991182;28;20171;-79
2023/07/30 05:54:30;;;;;;;3.07;0.93;;;20.20;99.90;;;;;;4991465;28;20187;-79
2023/07/30 05:56:56;;;;;;;3.70;1.00;;;20.20;99.90;;;;;;4973687;28;20597;-79
2023/07/30 05:59:22;;;;;;;3.73;1.00;;;20.20;99.90;;;;;;4991182;28;20210;-79
2023/07/30 06:01:47;;;;;;;5.23;1.37;;;20.30;99.90;;;;;;4973799;28;20520;-79
2023/07/30 06:04:13;;;;;;;4.03;1.20;;;20.30;99.90;;;;;;4974186;28;20190;-79
2023/07/30 06:06:39;;;;;;;5.43;0.90;;;20.30;99.90;;;;;;4991194;28;20174;-79
2023/07/30 06:09:04;;;;;;;3.30;0.90;;;20.40;99.90;;;;;;4973840;28;20167;-80
2023/07/30 06:11:30;;;;;;;2.10;0.90;;;20.40;99.90;;;;;;4991051;28;20190;-79
2023/07/30 06:13:56;;;;;;;5.33;1.00;;;20.40;99.90;;;;;;4974350;28;20536;-80
2023/07/30 06:16:21;;;;;;;2.77;1.00;;;20.50;99.90;;;;;;4974246;28;20195;-80
2023/07/30 06:18:47;;;;;;;5.23;0.90;;;20.60;99.90;;;;;;4990947;28;20686;-80
2023/07/30 06:21:13;;;;;;;4.60;1.00;;;20.60;99.90;;;;;;4974692;28;20186;-79
2023/07/30 06:23:39;;;;;;;3.73;1.20;;;20.60;99.90;;;;;;4990946;28;20598;-79
2023/07/30 06:26:05;;;;;;;3.80;0.80;;;20.60;99.90;;;;;;4957696;28;20574;-79
2023/07/30 06:28:30;;;;;;;2.93;1.10;;;20.60;99.90;;;;;;4973197;28;20186;-79
2023/07/30 06:31:00;;;;;;;4.50;1.20;;;20.70;99.90;;;;;;4973969;28;20735;-79
2023/07/30 06:33:26;;;;;;;3.00;0.70;;;20.70;99.90;;;;;;4958417;28;20229;-78
2023/07/30 06:35:52;;;;;;;2.30;0.70;;;20.70;99.90;;;;;;4973897;28;21503;-79
2023/07/30 06:38:18;;;;;;;6.13;1.00;;;20.70;99.90;;;;;;4990507;28;20179;-79
2023/07/30 06:40:43;;;;;;;4.57;1.10;;;20.80;99.90;;;;;;4973646;28;20725;-78
2023/07/30 06:43:09;;;;;;;5.00;0.90;;;20.80;99.90;;;;;;4990304;28;20725;-78
2023/07/30 06:45:34;;;;;;;2.07;0.90;;;20.80;99.90;;;;;;4991298;28;20624;-79
2023/07/30 06:48:00;;;;;;;2.00;0.70;;;20.80;99.90;;;;;;4973251;28;20183;-80
2023/07/30 06:50:26;;;;;;;3.10;0.80;;;20.80;99.90;;;;;;4991086;28;20199;-80
2023/07/30 06:52:52;;;;;;;2.47;0.87;;;20.80;99.90;;;;;;4973480;28;20614;-80
2023/07/30 06:55:17;;;;;;;2.47;0.80;;;20.80;99.90;;;;;;4973386;28;20175;-80
2023/07/30 06:57:43;;;;;;;3.20;1.13;;;20.70;99.90;;;;;;4973778;28;20649;-80
2023/07/30 07:00:09;;;;;;;3.40;0.80;;;20.70;99.90;;;;;;4973109;28;20190;-79
2023/07/30 07:02:36;;;;;;;2.20;0.90;;;20.70;99.90;;;;;;4973324;28;20182;-80
2023/07/30 07:05:02;;;;;;;1.83;0.60;;;20.70;99.90;;;;;;4990743;28;20569;-80
2023/07/30 07:07:28;;;;;;;2.27;0.70;;;20.70;99.90;;;;;;4941654;28;20578;-80
2023/07/30 07:09:53;;;;;;;3.43;0.80;;;20.80;99.90;;;;;;4972692;28;20665;-79
2023/07/30 07:12:19;;;;;;;2.20;0.73;;;20.80;99.90;;;;;;4989478;28;20230;-79
2023/07/30 07:14:45;;;;;;;3.10;0.70;;;20.90;99.90;;;;;;4990584;28;20539;-79
2023/07/30 07:17:10;;;;;;;2.43;1.13;;;20.90;99.90;;;;;;4990819;28;20181;-79
2023/07/30 07:19:36;;;;;;;2.20;0.60;;;21.00;99.90;;;;;;4972728;28;20564;-78
2023/07/30 07:22:05;;;;;;;2.77;1.67;;;21.00;99.90;;;;;;4990353;28;20183;-78
2023/07/30 07:24:31;;;;;;;2.83;0.80;;;21.10;99.90;;;;;;4990702;28;20199;-79
2023/07/30 07:26:57;;;;;;;2.53;0.70;;;21.20;99.90;;;;;;4973191;28;20645;-79
2023/07/30 07:29:23;;;;;;;3.03;0.77;;;21.30;99.90;;;;;;4973057;28;20587;-79
2023/07/30 07:31:48;;;;;;;3.70;1.00;;;21.40;99.90;;;;;;4989986;28;20590;-79
2023/07/30 07:34:14;;;;;;;3.57;1.10;;;21.50;99.90;;;;;;4973785;28;20199;-79
2023/07/30 07:36:40;;;;;;;6.13;1.00;;;21.60;99.90;;;;;;4990452;28;20570;-79
2023/07/30 07:39:06;;;;;;;4.13;1.00;;;21.70;99.90;;;;;;4993110;28;20167;-80
2023/07/30 07:41:32;;;;;;;3.30;0.90;;;21.80;99.90;;;;;;4976405;28;20647;-79
2023/07/30 07:43:57;;;;;;;3.07;0.83;;;21.90;99.90;;;;;;4976684;28;20733;-79
2023/07/30 07:46:24;;;;;;;2.00;0.80;;;21.90;99.90;;;;;;4960111;28;20647;-79
2023/07/30 07:48:50;;;;;;;3.17;1.00;;;22.00;99.90;;;;;;4976040;28;20193;-79
2023/07/30 07:51:15;;;;;;;3.60;0.93;;;22.10;99.90;;;;;;4999775;28;20610;-78
2023/07/30 07:53:41;;;;;;;3.23;0.97;;;22.20;99.90;;;;;;4994944;28;20674;-81
2023/07/30 07:56:07;;;;;;;4.60;1.10;;;22.30;99.90;;;;;;4994921;28;20241;-79
2023/07/30 07:58:32;;;;;;;5.47;1.17;;;22.40;99.90;;;;;;4979024;28;20179;-78
2023/07/30 08:00:59;;;;;;;4.83;1.20;;;22.50;99.90;;;;;;4978196;28;20266;-80
2023/07/30 08:03:26;;;;;;;3.73;1.47;;;22.50;99.90;;;;;;4976579;28;20340;-80
2023/07/30 08:05:52;;;;;;;7.23;2.47;;;22.70;99.90;;;;;;4976658;28;20673;-79
2023/07/30 08:08:18;;;;;;;7.03;1.00;;;22.70;99.90;;;;;;4993554;28;20677;-80
2023/07/30 08:10:46;;;;;;;3.17;1.10;;;22.80;99.90;;;;;;4976880;28;20645;-81
2023/07/30 08:13:12;;;;;;;3.80;1.13;;;22.90;99.90;;;;;;4960187;28;20209;-79
2023/07/30 08:15:38;;;;;;;7.60;1.30;;;23.00;99.90;;;;;;4976708;28;20589;-80
2023/07/30 08:18:03;;;;;;;4.43;1.00;;;23.10;99.90;;;;;;4975932;28;20574;-80
2023/07/30 08:20:29;;;;;;;5.30;0.90;;;23.20;99.90;;;;;;4993913;28;20175;-79
2023/07/30 08:23:04;;;;;;;2.57;1.03;;;23.30;99.90;;;;;;4975547;28;20196;-80
2023/07/30 08:25:30;;;;;;;8.23;3.00;;;23.30;99.90;;;;;;4975603;28;20204;-81
2023/07/30 08:27:55;;;;;;;3.40;1.00;;;23.40;99.90;;;;;;4976252;28;20579;-80
2023/07/30 08:30:21;;;;;;;6.10;2.40;;;23.40;99.90;;;;;;4993202;28;20649;-80
2023/07/30 08:32:47;;;;;;;5.50;1.10;;;23.40;99.90;;;;;;4975350;28;20167;-79
2023/07/30 08:35:12;;;;;;;3.23;0.90;;;23.30;99.90;;;;;;4993809;28;20203;-80
2023/07/30 08:37:38;;;;;;;8.20;1.40;;;23.30;99.90;;;;;;4994402;28;20265;-79
2023/07/30 08:40:05;;;;;;;3.63;1.00;;;23.20;99.90;;;;;;4994059;28;20262;-80
2023/07/30 08:42:31;;;;;;;5.03;1.00;;;23.10;99.90;;;;;;4960605;28;21197;-79
2023/07/30 08:44:56;;;;;;;5.37;1.13;;;23.10;99.90;;;;;;4993311;28;20697;-79
2023/07/30 08:47:22;;;;;;;4.70;1.10;;;23.00;99.90;;;;;;4992979;28;20574;-79
2023/07/30 08:49:48;;;;;;;5.63;1.57;;;22.90;99.90;;;;;;4992619;28;20647;-79
2023/07/30 08:52:16;;;;;;;3.80;1.17;;;22.90;99.90;;;;;;4992678;28;20175;-79
2023/07/30 08:54:44;;;;;;;3.03;1.10;;;23.20;99.90;;;;;;4975096;28;20226;-78
2023/07/30 08:57:10;;;;;;;4.43;0.97;;;23.70;99.90;;;;;;4993253;28;20594;-79
2023/07/30 08:59:45;;;;;;;6.67;2.27;;;24.20;99.90;;;;;;4974797;28;20586;-78
2023/07/30 09:02:17;;;;;;;4.70;1.10;;;24.80;99.90;;;;;;4992610;28;20574;-79
2023/07/30 09:04:48;;;;;;;4.80;1.20;;;25.30;99.90;;;;;;4992160;28;20632;-79
2023/07/30 09:07:13;;;;;;;5.10;1.20;;;25.90;99.90;;;;;;4993224;28;20669;-79
2023/07/30 09:09:41;;;;;;;5.53;1.47;;;26.40;99.90;;;;;;4991665;28;21040;-79
2023/07/30 09:12:13;;;;;;;4.90;1.10;;;26.80;99.90;;;;;;4991665;28;20162;-80
2023/07/30 09:14:40;;;;;;;5.03;1.53;;;27.10;99.90;;;;;;4974686;28;20875;-79
2023/07/30 09:17:05;;;;;;;3.40;1.10;;;27.40;99.90;;;;;;4974624;28;20985;-80
2023/07/30 09:19:35;;;;;;;4.67;1.13;;;27.70;99.90;;;;;;4975647;28;20574;-78
2023/07/30 09:22:05;;;;;;;2.63;1.00;;;28.00;99.90;;;;;;4977593;28;20179;-79
2023/07/30 09:24:31;;;;;;;4.73;1.00;;;28.10;99.90;;;;;;4994044;28;20601;-78
2023/07/30 09:27:02;;;;;;;6.10;1.60;;;28.20;99.90;;;;;;4976287;28;20589;-79
2023/07/30 09:29:55;;;;;;;4.37;1.00;;;28.20;99.90;;;;;;4981537;28;20174;-77
2023/07/30 09:32:29;;;;;;;4.13;1.10;;;28.10;99.90;;;;;;4971465;28;20588;-78
2023/07/30 09:35:06;;;;;;;4.67;1.00;;;28.00;99.90;;;;;;4975300;28;20593;-77
2023/07/30 09:37:36;;;;;;;5.03;0.93;;;28.00;99.90;;;;;;4975919;28;20581;-78
2023/07/30 09:40:02;;;;;;;4.47;1.07;;;28.20;99.90;;;;;;4993814;28;20925;-78
2023/07/30 09:42:28;;;;;;;3.33;1.00;;;28.30;99.90;;;;;;4994164;28;20569;-78
2023/07/30 09:44:59;;;;;;;4.13;1.10;;;28.60;99.90;;;;;;4978545;28;20614;-78
2023/07/30 09:47:27;;;;;;;3.73;1.20;;;28.70;99.90;;;;;;4994103;28;20582;-79
2023/07/30 09:49:53;;;;;;;2.60;0.90;;;29.10;99.90;;;;;;4976194;28;20642;-79
2023/07/30 09:52:20;;;;;;;2.80;0.90;;;29.80;99.90;;;;;;4975696;28;20588;-78
2023/07/30 09:54:46;;;;;;;5.50;1.10;;;30.60;99.90;;;;;;4995139;28;20710;-78
2023/07/30 09:57:12;;;;;;;3.47;1.10;;;31.30;99.90;;;;;;4976158;28;20651;-79
2023/07/30 09:59:38;;;;;;;3.20;1.40;;;31.80;99.90;;;;;;4960500;28;21034;-79
2023/07/30 10:02:06;;;;;;;3.60;1.33;;;31.90;99.90;;;;;;4960087;28;20203;-78
2023/07/30 10:04:33;;;;;;;2.60;1.20;;;31.80;99.90;;;;;;4993588;28;21020;-79
2023/07/30 10:07:03;;;;;;;3.23;1.53;;;31.40;99.30;;;;;;4993572;28;20586;-79
2023/07/30 10:09:42;;;;;;;6.53;1.67;;;31.30;99.60;;;;;;4993939;28;20982;-79
2023/07/30 10:12:13;;;;;;;2.13;0.90;;;31.40;99.50;;;;;;4975635;28;20712;-79
2023/07/30 10:14:38;;;;;;;3.77;1.13;;;31.60;99.90;;;;;;4974865;28;20657;-79
2023/07/30 10:17:05;;;;;;;3.30;1.00;;;31.90;99.90;;;;;;4993213;28;20572;-79
2023/07/30 10:19:31;;;;;;;3.80;1.10;;;32.00;98.80;;;;;;4975904;28;20279;-78
2023/07/30 10:22:12;;;;;;;3.90;0.93;;;31.90;96.90;;;;;;4976369;28;20579;-78
2023/07/30 10:24:39;;;;;;;3.63;0.90;;;31.90;96.30;;;;;;4994165;28;20607;-79
2023/07/30 10:27:09;;;;;;;3.33;1.00;;;31.90;96.70;;;;;;4976132;28;20590;-79
2023/07/30 10:29:36;;;;;;;2.90;1.30;;;31.90;95.30;;;;;;4975563;28;20593;-79
2023/07/30 10:32:02;;;;;;;2.73;0.97;;;31.90;95.50;;;;;;4975158;28;20601;-77
2023/07/30 10:38:24;;;;;;;4.00;1.40;;;32.10;94.30;;;;;;4973703;28;20647;-78
2023/07/30 10:41:18;;;;;;;2.33;0.97;;;32.50;94.30;;;;;;4990858;28;20587;-78
2023/07/30 10:43:51;;;;;;;4.67;1.27;;;32.70;93.40;;;;;;4990993;28;20636;-78
2023/07/30 10:46:18;;;;;;;4.57;0.90;;;32.80;91.90;;;;;;4990220;28;21039;-78
2023/07/30 10:48:47;;;;;;;2.70;0.77;;;32.70;91.30;;;;;;4973337;28;20592;-79
2023/07/30 10:51:15;;;;;;;3.03;1.13;;;32.50;90.30;;;;;;4972939;28;20639;-78
2023/07/30 10:53:49;;;;;;;3.17;0.90;;;32.10;88.60;;;;;;4992710;28;20611;-78
2023/07/30 10:56:23;;;;;;;2.93;0.77;;;32.00;87.10;;;;;;4976520;28;20644;-78
2023/07/30 10:58:51;;;;;;;3.70;0.83;;;31.70;86.70;;;;;;4973870;28;20588;-78
2023/07/30 11:01:16;;;;;;;3.30;0.77;;;31.70;89.50;;;;;;4990427;28;20628;-78
2023/07/30 11:03:42;;;;;;;6.30;1.23;;;31.70;90.00;;;;;;4991052;28;20637;-78
2023/07/30 11:06:08;;;;;;;2.50;0.77;;;31.80;90.20;;;;;;4972904;28;20179;-78
2023/07/30 11:08:38;;;;;;;2.17;0.70;;;31.90;89.10;;;;;;4991333;28;20181;-78
2023/07/30 11:11:05;;;;;;;4.47;0.80;;;31.90;87.50;;;;;;4973599;28;20205;-78
2023/07/30 11:13:43;;;;;;;1.80;0.70;;;32.00;86.90;;;;;;4994482;28;20628;-78
2023/07/30 11:16:10;;;;;;;6.07;0.93;;;31.90;83.60;;;;;;4978591;28;20594;-77
2023/07/30 11:18:37;;;;;;;4.87;1.07;;;31.70;83.90;;;;;;4996473;28;20586;-78
2023/07/30 11:21:11;;;;;;;2.33;0.70;;;31.30;81.70;;;;;;4978797;28;20592;-78
2023/07/30 11:23:38;;;;;;;6.37;1.20;;;31.10;80.60;;;;;;4977962;28;20615;-78
2023/07/30 11:26:06;;;;;;;4.20;0.70;;;30.80;81.00;;;;;;4995097;28;20880;-79
2023/07/30 11:28:34;;;;;;;4.30;0.90;;;30.60;82.40;;;;;;4977604;28;20599;-78
2023/07/30 11:31:11;;;;;;;4.40;0.80;;;30.60;83.50;;;;;;4995539;28;20671;-79
2023/07/30 11:33:43;;;;;;;2.87;1.07;;;30.60;82.60;;;;;;4995046;28;20610;-79
2023/07/30 11:36:16;;;;;;;2.50;1.17;;;30.70;82.20;;;;;;4977263;28;20574;-79
2023/07/30 11:38:44;;;;;;;3.50;1.50;;;30.70;80.30;;;;;;4994743;28;20566;-78
2023/07/30 11:41:11;;;;;;;4.63;0.80;;;30.60;80.70;;;;;;4977186;28;20593;-79
2023/07/30 11:43:39;;;;;;;2.27;0.90;;;30.40;78.60;;;;;;4976468;28;20633;-79
2023/07/30 11:46:09;;;;;;;5.43;1.20;;;30.10;78.90;;;;;;4977421;28;20578;-79
2023/07/30 11:48:35;;;;;;;4.07;0.80;;;29.80;77.30;;;;;;4996308;28;20942;-78
2023/07/30 11:51:02;;;;;;;3.70;1.20;;;29.50;77.20;;;;;;4978753;28;20639;-79
2023/07/30 11:53:53;;;;;;;3.37;1.13;;;29.30;77.10;;;;;;4978225;28;20649;-79
2023/07/30 11:56:22;;;;;;;1.87;0.67;;;28.90;72.50;;;;;;4978736;28;20590;-78
2023/07/30 11:58:49;;;;;;;3.33;0.93;;;28.60;76.10;;;;;;4977300;28;20640;-78
2023/07/30 12:01:16;;;;;;;3.50;0.70;;;28.40;77.50;;;;;;4979513;28;20636;-79
2023/07/30 12:03:42;;;;;;;2.10;0.70;;;28.20;77.50;;;;;;4978301;28;20970;-78
2023/07/30 12:06:12;;;;;;;3.03;0.90;;;28.00;78.30;;;;;;4983973;28;20647;-78
2023/07/30 12:08:38;;;;;;;4.93;0.90;;;27.90;78.70;;;;;;4977533;28;20601;-78
2023/07/30 12:11:05;;;;;;;4.13;0.93;;;27.70;79.50;;;;;;4976735;28;20668;-78
2023/07/30 12:13:31;;;;;;;3.90;1.63;;;27.60;79.90;;;;;;4977878;28;20621;-79
2023/07/30 12:15:58;;;;;;;7.20;2.80;;;27.40;79.60;;;;;;4978914;28;20618;-78
2023/07/30 12:18:24;;;;;;;4.17;1.60;;;27.10;79.70;;;;;;4996212;28;20581;-78
2023/07/30 12:20:51;;;;;;;3.47;1.00;;;27.00;79.50;;;;;;4995817;28;20579;-78
2023/07/30 12:23:17;;;;;;;4.40;1.20;;;26.70;80.20;;;;;;4995731;28;20680;-78
2023/07/30 12:25:43;;;;;;;2.60;0.90;;;26.60;81.10;;;;;;4984924;28;20593;-77
2023/07/30 12:28:09;;;;;;;6.90;1.30;;;26.50;81.90;;;;;;4996834;28;20594;-78
2023/07/30 12:30:36;;;;;;;6.03;1.00;;;26.40;83.50;;;;;;4996597;28;20281;-78
2023/07/30 12:34:04;;;;;;;;;;;;;;;;;;;;;
2023/07/30 12:36:36;;;;;;;3.33;0.90;;;26.30;86.60;;;;;;4951239;28;20701;-79
2023/07/30 12:39:02;;;;;;;3.43;1.07;;;26.50;90.00;;;;;;4980386;28;20634;-78
2023/07/30 12:41:28;;;;;;;3.23;0.90;;;26.60;90.00;;;;;;4979834;28;20175;-78
2023/07/30 12:43:58;;;;;;;3.50;1.20;;;26.70;90.20;;;;;;5001526;23;20673;-79
2023/07/30 12:46:24;;;;;;;2.87;0.77;;;26.70;90.60;;;;;;5029688;28;20229;-79
2023/07/30 12:48:51;;;;;;;7.37;1.17;;;26.80;90.90;;;;;;5030220;28;20602;-79
2023/07/30 12:51:17;;;;;;;5.30;1.23;;;26.90;90.70;;;;;;5004729;28;20589;-80